createdAt,value
2023-03-17T00:01:12.484Z,100878.51
2023-03-17T00:06:19.089Z,100869.25
2023-03-17T00:11:22.051Z,100864.71
2023-03-17T00:16:27.248Z,100864.09
2023-03-17T00:21:32.111Z,100859.48
2023-03-17T00:26:34.608Z,100866.34
2023-03-17T00:31:39.649Z,100861.68
2023-03-17T00:36:43.935Z,100853.95
2023-03-17T00:46:48.449Z,100858.98
2023-03-17T00:51:51.333Z,100854.30
2023-03-17T00:56:54.141Z,100857.35
2023-03-17T01:01:57.420Z,100853.20
2023-03-17T01:07:00.062Z,100854.86
2023-03-17T01:12:02.560Z,100857.08
2023-03-17T01:17:13.657Z,100851.66
2023-03-17T01:22:16.132Z,100856.36
2023-03-17T01:27:19.203Z,100858.67
2023-03-17T01:32:22.207Z,100854.91
2023-03-17T01:37:25.659Z,100856.92
2023-03-17T01:42:28.883Z,100850.93
2023-03-17T01:47:32.075Z,100852.98
2023-03-17T01:52:38.423Z,100848.02
2023-03-17T01:57:44.906Z,100848.32
2023-03-17T02:02:50.116Z,100852.67
2023-03-17T02:07:53.615Z,100856.14
2023-03-17T02:13:00.139Z,100852.73
2023-03-17T02:18:03.667Z,100857.22
2023-03-17T02:23:07.441Z,100856.42
2023-03-17T02:28:16.461Z,100863.67
2023-03-17T02:33:19.128Z,100858.84
2023-03-17T02:38:22.134Z,100858.89
2023-03-17T02:43:24.663Z,100862.54
2023-03-17T02:48:27.268Z,100860.23
2023-03-17T02:53:29.792Z,100861.49
2023-03-17T02:58:32.351Z,100857.77
2023-03-17T03:03:35.065Z,100857.25
2023-03-17T03:08:37.722Z,100852.83
2023-03-17T03:13:40.506Z,100856.15
2023-03-17T03:18:43.026Z,100855.57
2023-03-17T03:23:46.026Z,100855.42
2023-03-17T03:28:48.812Z,100855.20
2023-03-17T03:33:51.578Z,100850.67
2023-03-17T03:38:54.159Z,100842.27
2023-03-17T03:43:56.859Z,100837.86
2023-03-17T03:48:59.433Z,100832.75
2023-03-17T03:54:01.932Z,100833.17
2023-03-17T03:59:04.517Z,100836.48
2023-03-17T04:04:07.302Z,100837.48
2023-03-17T04:09:09.796Z,100840.55
2023-03-17T04:14:12.668Z,100839.24
2023-03-17T04:19:15.261Z,100839.31
2023-03-17T04:24:17.807Z,100844.33
2023-03-17T04:29:20.463Z,100834.55
2023-03-17T04:34:23.394Z,100832.33
2023-03-17T04:39:25.934Z,100838.56
2023-03-17T04:44:28.485Z,100845.81
2023-03-17T04:49:31.295Z,100847.52
2023-03-17T04:54:33.834Z,100845.65
2023-03-17T04:59:36.701Z,100844.16
2023-03-17T05:04:39.267Z,100847.99
2023-03-17T05:09:41.951Z,100854.42
2023-03-17T05:14:44.473Z,100851.05
2023-03-17T05:19:47.116Z,100852.89
2023-03-17T05:24:49.666Z,100849.99
2023-03-17T05:29:52.502Z,100851.73
2023-03-17T05:34:55.062Z,100849.59
2023-03-17T05:39:57.718Z,100847.99
2023-03-17T05:45:00.258Z,100855.19
2023-03-17T05:50:04.728Z,100861.56
2023-03-17T05:55:08.422Z,100858.28
2023-03-17T06:00:13.454Z,100856.52
2023-03-17T06:05:16.160Z,100854.27
2023-03-17T06:10:18.730Z,100859.11
2023-03-17T06:15:21.368Z,100864.83
2023-03-17T06:20:24.083Z,100873.91
2023-03-17T06:25:26.931Z,100893.27
2023-03-17T06:30:30.732Z,100886.88
2023-03-17T06:35:34.419Z,100880.02
2023-03-17T06:40:37.388Z,100881.95
2023-03-17T06:45:39.974Z,100892.27
2023-03-17T06:50:42.627Z,100885.40
2023-03-17T06:55:46.024Z,100875.06
2023-03-17T07:00:48.905Z,100878.67
2023-03-17T07:05:52.030Z,100882.73
2023-03-17T07:10:57.212Z,100877.61
2023-03-17T07:16:00.669Z,100867.83
2023-03-17T07:21:03.620Z,100871.84
2023-03-17T07:26:06.229Z,100872.39
2023-03-17T07:31:11.519Z,100871.05
2023-03-17T07:36:15.655Z,100873.80
2023-03-17T07:41:18.204Z,100875.09
2023-03-17T07:46:21.392Z,100875.36
2023-03-17T07:51:27.662Z,100875.21
2023-03-17T07:56:31.253Z,100882.95
2023-03-17T08:01:34.147Z,100892.62
2023-03-17T08:06:37.292Z,100892.79
2023-03-17T08:11:39.790Z,100891.95
2023-03-17T08:16:42.794Z,100889.08
2023-03-17T08:21:45.609Z,100891.17
2023-03-17T08:26:49.233Z,100888.02
2023-03-17T08:31:51.900Z,100885.86
2023-03-17T08:36:54.642Z,100878.10
2023-03-17T08:41:57.413Z,100873.12
2023-03-17T08:46:59.965Z,100875.36
2023-03-17T08:52:03.466Z,100867.13
2023-03-17T08:57:06.096Z,100869.70
2023-03-17T09:02:11.875Z,100877.54
2023-03-17T09:07:15.072Z,100872.61
2023-03-17T09:12:17.654Z,100868.46
2023-03-17T09:17:20.275Z,100871.13
2023-03-17T09:22:23.190Z,100873.65
2023-03-17T09:27:25.780Z,100868.19
2023-03-17T09:32:28.359Z,100858.12
2023-03-17T09:37:31.081Z,100848.18
2023-03-17T09:42:38.557Z,100847.81
2023-03-17T09:48:11.987Z,100845.94
2023-03-17T09:53:33.948Z,100848.06
2023-03-17T09:58:39.205Z,100833.12
2023-03-17T10:03:42.716Z,100833.41
2023-03-17T10:09:16.996Z,100837.69
2023-03-17T10:14:35.217Z,100834.19
2023-03-17T10:19:40.640Z,100828.27
2023-03-17T10:24:48.854Z,100831.97
2023-03-17T10:29:52.852Z,100825.34
2023-03-17T10:34:56.522Z,100815.01
2023-03-17T10:40:00.951Z,100801.89
2023-03-17T10:45:27.775Z,100786.83
2023-03-17T10:50:33.579Z,100783.91
2023-03-17T10:55:42.843Z,100777.86
2023-03-17T11:01:08.222Z,100771.23
2023-03-17T11:06:13.636Z,100763.03
2023-03-17T11:11:24.702Z,100762.31
2023-03-17T11:16:27.360Z,100761.77
2023-03-17T11:21:33.908Z,100760.86
2023-03-17T11:26:57.503Z,100746.31
2023-03-17T11:32:19.708Z,100735.59
2023-03-17T11:37:41.491Z,100731.71
2023-03-17T11:42:58.567Z,100718.64
2023-03-17T11:48:27.672Z,100718.10
2023-03-17T11:53:55.604Z,100717.42
2023-03-17T11:59:06.570Z,100713.27
2023-03-17T12:04:34.294Z,100706.14
2023-03-17T12:09:45.594Z,100705.42
2023-03-17T12:14:52.278Z,100700.82
2023-03-17T12:20:18.216Z,100695.33
2023-03-17T12:25:29.426Z,100681.14
2023-03-17T12:30:48.361Z,100665.66
2023-03-17T12:35:52.054Z,100661.05
2023-03-17T12:41:08.630Z,100640.19
2023-03-17T12:46:28.835Z,100632.08
2023-03-17T12:51:40.731Z,100638.09
2023-03-17T12:56:46.411Z,100635.84
2023-03-17T13:02:06.042Z,100621.98
2023-03-17T13:07:14.985Z,100615.55
2023-03-17T13:12:36.120Z,100616.27
2023-03-17T13:17:38.686Z,100623.35
2023-03-17T13:23:02.116Z,100622.48
2023-03-17T13:28:10.929Z,100616.02
2023-03-17T13:33:15.149Z,100620.30
2023-03-17T13:38:48.577Z,100610.33
2023-03-17T13:44:20.512Z,100608.09
2023-03-17T13:49:30.286Z,100596.91
2023-03-17T13:54:40.596Z,100599.52
2023-03-17T14:00:01.595Z,100601.91
2023-03-17T14:05:07.621Z,100603.24
2023-03-17T14:10:19.522Z,100600.25
2023-03-17T14:15:35.021Z,100596.49
2023-03-17T14:20:37.629Z,100597.48
2023-03-17T14:25:40.259Z,100597.27
2023-03-17T14:30:53.130Z,100596.32
2023-03-17T14:36:01.834Z,100597.96
2023-03-17T14:41:18.261Z,100596.10
2023-03-17T14:46:26.477Z,100576.98
2023-03-17T14:51:33.210Z,100574.55
2023-03-17T14:56:39.879Z,100572.09
2023-03-17T15:01:45.522Z,100573.83
2023-03-17T15:06:54.968Z,100580.51
2023-03-17T15:12:23.129Z,100584.92
2023-03-17T15:17:33.352Z,100572.10
2023-03-17T15:22:35.828Z,100562.33
2023-03-17T15:27:38.333Z,100564.15
2023-03-17T15:32:41.272Z,100567.34
2023-03-17T15:37:43.943Z,100567.54
2023-03-17T15:42:46.798Z,100556.25
2023-03-17T15:47:49.404Z,100539.17
2023-03-17T15:52:57.976Z,100523.05
2023-03-17T15:58:00.629Z,100520.00
2023-03-17T16:03:28.884Z,100516.30
2023-03-17T16:08:31.432Z,100511.52
2023-03-17T16:13:34.001Z,100521.75
2023-03-17T16:18:38.175Z,100530.23
2023-03-17T16:23:41.040Z,100533.40
2023-03-17T16:28:45.508Z,100536.22
2023-03-17T16:33:49.085Z,100528.37
2023-03-17T16:38:52.025Z,100530.46
2023-03-17T16:44:01.122Z,100528.61
2023-03-17T16:49:04.964Z,100528.86
2023-03-17T16:54:07.765Z,100524.17
2023-03-17T16:59:18.427Z,100519.05
2023-03-17T17:04:20.936Z,100511.13
2023-03-17T17:09:23.445Z,100507.50
2023-03-17T17:14:25.955Z,100510.95
2023-03-17T17:19:28.586Z,100512.99
2023-03-17T17:24:31.088Z,100517.10
2023-03-17T17:29:33.640Z,100519.62
2023-03-17T17:34:36.150Z,100522.64
2023-03-17T17:39:38.720Z,100520.64
2023-03-17T17:44:41.241Z,100522.75
2023-03-17T17:49:43.850Z,100525.88
2023-03-17T17:54:46.377Z,100525.38
2023-03-17T17:59:48.922Z,100521.77
2023-03-17T18:04:51.645Z,100514.54
2023-03-17T18:09:54.334Z,100511.45
2023-03-17T18:14:56.970Z,100512.50
2023-03-17T18:19:59.508Z,100506.80
2023-03-17T18:25:02.032Z,100501.81
2023-03-17T18:30:07.467Z,100497.32
2023-03-17T18:35:14.816Z,100491.80
2023-03-17T18:40:19.140Z,100498.73
2023-03-17T18:45:21.920Z,100497.17
2023-03-17T18:50:24.488Z,100495.28
2023-03-17T18:55:27.008Z,100494.59
2023-03-17T19:00:30.022Z,100492.33
2023-03-17T19:05:37.538Z,100495.95
2023-03-17T19:10:42.818Z,100500.09
2023-03-17T19:15:46.031Z,100505.46
2023-03-17T19:20:48.637Z,100502.71
2023-03-17T19:25:51.169Z,100494.63
2023-03-17T19:30:55.868Z,100499.82
2023-03-17T19:35:59.987Z,100497.42
2023-03-17T19:41:03.486Z,100495.37
2023-03-17T19:46:06.177Z,100495.21
2023-03-17T19:51:09.363Z,100501.98
2023-03-17T19:56:11.978Z,100497.17
2023-03-17T20:01:14.692Z,100495.11
2023-03-17T20:06:17.315Z,100489.27
2023-03-17T20:11:19.833Z,100492.04
2023-03-17T20:16:22.739Z,100491.52
2023-03-17T20:21:25.497Z,100490.85
2023-03-17T20:26:28.724Z,100492.75
2023-03-17T20:31:31.991Z,100486.88
2023-03-17T20:36:34.668Z,100481.17
2023-03-17T20:41:37.162Z,100478.71
2023-03-17T20:46:39.892Z,100482.34
2023-03-17T20:51:43.705Z,100484.41
2023-03-17T20:56:49.404Z,100492.17
2023-03-17T21:01:52.048Z,100490.80
2023-03-17T21:06:54.611Z,100483.05
2023-03-17T21:11:57.124Z,100480.30
2023-03-17T21:17:01.290Z,100472.73
2023-03-17T21:22:04.518Z,100472.57
2023-03-17T21:27:11.063Z,100473.58
2023-03-17T21:32:13.646Z,100470.82
2023-03-17T21:37:18.254Z,100462.67
2023-03-17T21:42:20.739Z,100447.13
2023-03-17T21:47:23.223Z,100436.76
2023-03-17T21:52:25.987Z,100436.39
2023-03-17T21:57:29.512Z,100434.27
2023-03-17T22:02:32.016Z,100438.05
2023-03-17T22:07:34.531Z,100438.20
2023-03-17T22:12:38.254Z,100438.88
2023-03-17T22:17:40.788Z,100447.01
2023-03-17T22:22:43.317Z,100444.61
2023-03-17T22:27:45.933Z,100440.50
2023-03-17T22:32:48.890Z,100438.63
2023-03-17T22:37:51.399Z,100438.30
2023-03-17T22:42:56.497Z,100435.75
2023-03-17T22:47:58.975Z,100436.80
2023-03-17T22:53:01.688Z,100439.25
2023-03-17T22:58:04.246Z,100443.23
2023-03-17T23:03:07.144Z,100439.63
2023-03-17T23:08:09.620Z,100434.65
2023-03-17T23:13:12.605Z,100433.98
2023-03-17T23:18:15.497Z,100435.03
2023-03-17T23:23:17.979Z,100432.63
2023-03-17T23:28:20.575Z,100435.57
2023-03-17T23:33:24.038Z,100429.39
2023-03-17T23:38:26.634Z,100421.30
2023-03-17T23:43:29.170Z,100416.98
2023-03-17T23:48:32.689Z,100415.09
2023-03-17T23:53:35.492Z,100416.13
2023-03-17T23:58:38.141Z,100412.52
